createdAt,value
2019-04-21T00:01:30.672Z,102052.91
2019-04-21T00:04:13.672Z,102048.23
2019-04-21T00:06:55.346Z,102047.70
2019-04-21T00:09:32.663Z,102051.14
2019-04-21T00:12:05.666Z,102046.98
2019-04-21T00:14:22.125Z,102048.47
2019-04-21T00:16:52.920Z,102052.05
2019-04-21T00:19:31.785Z,102045.42
2019-04-21T00:22:08.622Z,102043.27
2019-04-21T00:24:44.428Z,102039.12
2019-04-21T00:27:21.404Z,102035.91
2019-04-21T00:29:51.803Z,102036.81
2019-04-21T00:32:24.567Z,102025.28
2019-04-21T00:34:42.046Z,102025.47
2019-04-21T00:37:20.747Z,102027.47
2019-04-21T00:40:05.933Z,102024.77
2019-04-21T00:42:34.235Z,102020.30
2019-04-21T00:45:01.951Z,102023.00
2019-04-21T00:47:44.666Z,102014.20
2019-04-21T00:50:22.884Z,102010.60
2019-04-21T00:52:51.474Z,102007.00
2019-04-21T00:55:42.910Z,102008.97
2019-04-21T00:58:14.788Z,102001.42
2019-04-21T01:00:44.510Z,102002.67
2019-04-21T01:03:10.973Z,101996.04
2019-04-21T01:05:48.317Z,102000.91
2019-04-21T01:08:13.280Z,101991.54
2019-04-21T01:10:36.030Z,101996.92
2019-04-21T01:13:23.328Z,101992.64
2019-04-21T01:15:48.977Z,101993.35
2019-04-21T01:18:23.343Z,101996.25
2019-04-21T01:20:29.856Z,101990.84
2019-04-21T01:23:00.297Z,101988.34
2019-04-21T01:25:38.194Z,101986.00
2019-04-21T01:28:23.254Z,101985.63
2019-04-21T01:30:56.943Z,101981.70
2019-04-21T01:33:32.354Z,101984.23
2019-04-21T01:35:58.317Z,101984.59
2019-04-21T01:38:38.194Z,101983.52
2019-04-21T01:41:11.346Z,101977.72
2019-04-21T01:43:33.951Z,101978.45
2019-04-21T01:46:05.571Z,101973.78
2019-04-21T01:48:36.056Z,101974.84
2019-04-21T01:51:07.594Z,101971.41
2019-04-21T01:53:48.622Z,101967.85
2019-04-21T01:56:44.582Z,101967.11
2019-04-21T01:59:06.979Z,101966.39
2019-04-21T02:01:56.924Z,101960.30
2019-04-21T02:04:29.305Z,101953.81
2019-04-21T02:07:01.330Z,101954.72
2019-04-21T02:09:35.662Z,101956.34
2019-04-21T02:12:08.773Z,101955.43
2019-04-21T02:14:45.631Z,101959.37
2019-04-21T02:17:14.550Z,101963.67
2019-04-21T02:19:37.858Z,101960.98
2019-04-21T02:22:10.865Z,101959.00
2019-04-21T02:24:59.877Z,101960.08
2019-04-21T02:27:26.177Z,101960.08
2019-04-21T02:29:55.443Z,101951.06
2019-04-21T02:32:45.777Z,101951.06
2019-04-21T02:35:14.753Z,101954.09
2019-04-21T02:37:46.791Z,101947.64
2019-04-21T02:42:46.315Z,101951.75
2019-04-21T02:45:17.544Z,101944.77
2019-04-21T02:48:04.369Z,101942.22
2019-04-21T02:55:22.195Z,101933.94
2019-04-21T02:58:03.653Z,101929.64
2019-04-21T03:00:32.878Z,101929.29
2019-04-21T03:03:13.992Z,101928.38
2019-04-21T03:06:13.331Z,101922.63
2019-04-21T03:08:50.371Z,101922.45
2019-04-21T03:11:21.989Z,101920.67
2019-04-21T03:13:57.665Z,101916.52
2019-04-21T03:16:23.558Z,101924.05
2019-04-21T03:19:06.894Z,101924.78
2019-04-21T03:21:22.196Z,101887.22
2019-04-21T03:29:05.815Z,101913.23
2019-04-21T03:32:04.058Z,101915.18
2019-04-21T03:39:01.209Z,101906.27
2019-04-21T03:46:55.615Z,101897.68
2019-04-21T03:49:20.634Z,101900.92
2019-04-21T03:54:21.250Z,101903.95
2019-04-21T03:57:13.094Z,101903.22
2019-04-21T03:59:38.196Z,101903.20
2019-04-21T04:02:14.778Z,101903.20
2019-04-21T04:05:02.699Z,101908.72
2019-04-21T04:08:04.667Z,101899.93
2019-04-21T04:13:02.762Z,101895.82
2019-04-21T04:15:45.319Z,101893.84
2019-04-21T04:18:07.634Z,101896.69
2019-04-21T04:23:07.968Z,101899.00
2019-04-21T04:25:31.194Z,101900.93
2019-04-21T04:30:37.835Z,101891.04
2019-04-21T04:33:21.004Z,101891.73
2019-04-21T04:35:52.541Z,101889.80
2019-04-21T04:38:30.278Z,101891.06
2019-04-21T04:40:59.729Z,101896.09
2019-04-21T04:43:26.871Z,101895.75
2019-04-21T04:45:56.530Z,101898.06
2019-04-21T04:48:28.057Z,101893.92
2019-04-21T04:51:05.794Z,101894.83
2019-04-21T04:53:40.037Z,101888.55
2019-04-21T04:56:07.701Z,101886.61
2019-04-21T04:59:10.761Z,101885.52
2019-04-21T05:01:16.470Z,101881.92
2019-04-21T05:16:48.149Z,101878.92
2019-04-21T05:19:10.057Z,101875.84
2019-04-21T05:21:37.604Z,101870.84
2019-04-21T05:23:55.882Z,101869.06
2019-04-21T05:26:21.868Z,101869.62
2019-04-21T05:28:56.793Z,101863.44
2019-04-21T05:32:09.242Z,101855.19
2019-04-21T05:34:42.936Z,101845.13
2019-04-21T05:37:24.692Z,101845.95
2019-04-21T05:39:57.234Z,101845.57
2019-04-21T05:42:31.798Z,101847.41
2019-04-21T05:45:09.962Z,101845.23
2019-04-21T05:48:17.105Z,101843.24
2019-04-21T05:50:37.731Z,101842.84
2019-04-21T05:53:08.222Z,101849.42
2019-04-21T05:58:11.566Z,101845.68
2019-04-21T06:03:34.265Z,101849.70
2019-04-21T06:06:08.661Z,101842.12
2019-04-21T06:08:31.391Z,101845.84
2019-04-21T06:11:19.042Z,101840.23
2019-04-21T06:13:43.906Z,101836.93
2019-04-21T06:16:21.433Z,101840.39
2019-04-21T06:18:44.866Z,101840.32
2019-04-21T06:21:13.157Z,101832.08
2019-04-21T06:23:40.218Z,101840.90
2019-04-21T06:26:26.881Z,101846.88
2019-04-21T06:28:45.305Z,101842.38
2019-04-21T06:31:45.088Z,101837.42
2019-04-21T06:39:12.039Z,101833.05
2019-04-21T06:41:34.020Z,101832.33
2019-04-21T06:44:12.868Z,101833.44
2019-04-21T06:46:48.880Z,101830.20
2019-04-21T06:49:13.149Z,101828.44
2019-04-21T06:51:44.826Z,101833.00
2019-04-21T06:54:16.016Z,101828.08
2019-04-21T06:56:47.909Z,101827.27
2019-04-21T06:59:16.700Z,101821.75
2019-04-21T07:02:29.035Z,101821.29
2019-04-21T07:04:25.258Z,101823.32
2019-04-21T07:06:56.310Z,101822.11
2019-04-21T07:09:45.398Z,101818.11
2019-04-21T07:11:56.747Z,101811.05
2019-04-21T07:17:05.054Z,101807.13
2019-04-21T07:19:41.232Z,101807.72
2019-04-21T07:22:12.342Z,101813.13
2019-04-21T07:24:37.298Z,101809.52
2019-04-21T07:27:11.596Z,101810.69
2019-04-21T07:29:50.590Z,101817.06
2019-04-21T07:32:31.272Z,101808.49
2019-04-21T07:34:47.544Z,101808.79
2019-04-21T07:37:10.279Z,101800.88
2019-04-21T07:39:46.664Z,101799.97
2019-04-21T07:42:13.422Z,101804.02
2019-04-21T07:44:46.364Z,101811.05
2019-04-21T07:47:27.171Z,101809.15
2019-04-21T07:50:06.833Z,101804.09
2019-04-21T07:53:05.073Z,101805.09
2019-04-21T07:57:51.908Z,101799.13
2019-04-21T08:00:36.877Z,101798.18
2019-04-21T08:03:09.606Z,101801.83
2019-04-21T08:05:35.236Z,101799.83
2019-04-21T08:08:06.501Z,101793.92
2019-04-21T08:10:33.635Z,101789.74
2019-04-21T08:13:10.310Z,101786.74
2019-04-21T08:15:39.974Z,101784.95
2019-04-21T08:18:17.805Z,101789.03
2019-04-21T08:20:45.210Z,101783.66
2019-04-21T08:23:21.566Z,101782.31
2019-04-21T08:26:03.299Z,101779.37
2019-04-21T08:28:20.483Z,101781.58
2019-04-21T08:30:47.741Z,101783.98
2019-04-21T08:38:28.055Z,101779.91
2019-04-21T08:41:03.620Z,101775.62
2019-04-21T08:43:39.980Z,101775.19
2019-04-21T08:46:01.907Z,101771.95
2019-04-21T08:48:37.575Z,101769.74
2019-04-21T08:51:21.052Z,101766.42
2019-04-21T08:53:42.961Z,101755.11
2019-04-21T08:56:29.164Z,101760.16
2019-04-21T08:59:19.254Z,101756.25
2019-04-21T09:01:58.685Z,101749.41
2019-04-21T09:04:41.172Z,101748.58
2019-04-21T09:07:04.945Z,101747.55
2019-04-21T09:09:36.837Z,101743.93
2019-04-21T09:12:04.396Z,101747.03
2019-04-21T09:14:39.580Z,101745.56
2019-04-21T09:17:03.303Z,101736.82
2019-04-21T09:19:51.726Z,101703.95
2019-04-21T09:22:09.558Z,101735.19
2019-04-21T09:24:41.271Z,101730.25
2019-04-21T09:27:09.208Z,101728.75
2019-04-21T09:29:35.398Z,101731.08
2019-04-21T09:31:59.502Z,101724.34
2019-04-21T09:34:33.237Z,101718.62
2019-04-21T09:37:15.296Z,101715.05
2019-04-21T09:39:33.715Z,101708.92
2019-04-21T09:42:06.177Z,101701.78
2019-04-21T09:44:40.335Z,101695.86
2019-04-21T09:47:08.743Z,101701.70
2019-04-21T09:49:40.069Z,101677.02
2019-04-21T09:52:16.105Z,101691.62
2019-04-21T09:54:52.078Z,101684.37
2019-04-21T09:57:25.710Z,101683.44
2019-04-21T09:59:55.962Z,101685.97
2019-04-21T10:02:30.483Z,101687.59
2019-04-21T10:04:48.492Z,101680.91
2019-04-21T10:07:26.558Z,101670.70
2019-04-21T10:09:50.095Z,101680.98
2019-04-21T10:12:20.083Z,101671.41
2019-04-21T10:14:51.814Z,101668.90
2019-04-21T10:17:33.091Z,101671.14
2019-04-21T10:20:03.259Z,101673.42
2019-04-21T10:22:33.147Z,101663.44
2019-04-21T10:25:03.102Z,101660.09
2019-04-21T10:27:34.877Z,101649.72
2019-04-21T10:30:07.873Z,101646.25
2019-04-21T10:32:38.651Z,101640.16
2019-04-21T10:35:09.266Z,101635.41
2019-04-21T10:37:50.817Z,101628.91
2019-04-21T10:40:11.825Z,101633.82
2019-04-21T10:42:42.477Z,101622.99
2019-04-21T10:45:12.890Z,101617.85
2019-04-21T10:47:43.239Z,101621.38
2019-04-21T10:50:14.319Z,101616.55
2019-04-21T10:53:18.879Z,101613.88
2019-04-21T10:56:03.091Z,101602.08
2019-04-21T10:58:24.597Z,101597.23
2019-04-21T11:01:04.256Z,101598.64
2019-04-21T11:03:55.127Z,101600.54
2019-04-21T11:06:26.397Z,101593.84
2019-04-21T11:08:57.925Z,101592.05
2019-04-21T11:11:28.522Z,101582.63
2019-04-21T11:13:59.171Z,101582.30
2019-04-21T11:16:29.256Z,101575.84
2019-04-21T11:18:59.984Z,101582.97
2019-04-21T11:21:31.127Z,101576.56
2019-04-21T11:24:01.917Z,101576.37
2019-04-21T11:26:32.290Z,101566.17
2019-04-21T11:29:03.168Z,101569.67
2019-04-21T11:31:33.411Z,101564.67
2019-04-21T11:34:03.383Z,101566.88
2019-04-21T11:36:33.772Z,101563.92
2019-04-21T11:39:46.111Z,101552.68
2019-04-21T11:42:17.616Z,101551.80
2019-04-21T11:44:49.279Z,101547.93
2019-04-21T11:47:30.359Z,101545.66
2019-04-21T11:50:07.375Z,101536.02
2019-04-21T11:52:38.913Z,101543.00
2019-04-21T11:55:09.070Z,101535.39
2019-04-21T11:57:43.081Z,101533.38
2019-04-21T12:00:11.502Z,101531.06
2019-04-21T12:02:41.595Z,101530.70
2019-04-21T12:05:11.747Z,101519.80
2019-04-21T12:07:43.205Z,101522.86
2019-04-21T12:10:15.391Z,101523.42
2019-04-21T12:12:45.490Z,101521.28
2019-04-21T12:15:16.723Z,101511.80
2019-04-21T12:17:48.055Z,101511.02
2019-04-21T12:20:18.876Z,101513.48
2019-04-21T12:22:54.909Z,101507.37
2019-04-21T12:25:27.235Z,101501.66
2019-04-21T12:27:58.143Z,101496.33
2019-04-21T12:30:29.435Z,101483.41
2019-04-21T12:33:12.042Z,101484.47
2019-04-21T12:35:42.251Z,101476.42
2019-04-21T12:38:13.088Z,101475.14
2019-04-21T12:40:44.390Z,101477.11
2019-04-21T12:43:14.764Z,101472.19
2019-04-21T12:45:46.000Z,101463.09
2019-04-21T12:48:18.027Z,101463.78
2019-04-21T12:50:48.057Z,101461.22
2019-04-21T12:53:19.339Z,101456.78
2019-04-21T12:55:49.936Z,101449.00
2019-04-21T12:58:23.505Z,101448.36
2019-04-21T13:00:54.733Z,101437.27
2019-04-21T13:03:25.550Z,101440.47
2019-04-21T13:05:57.923Z,101434.05
2019-04-21T13:08:29.203Z,101427.87
2019-04-21T13:11:00.175Z,101426.17
2019-04-21T13:13:30.282Z,101418.83
2019-04-21T13:16:01.157Z,101414.90
2019-04-21T13:18:31.666Z,101414.38
2019-04-21T13:21:02.716Z,101403.05
2019-04-21T13:23:34.625Z,101400.89
2019-04-21T13:26:06.519Z,101395.23
2019-04-21T13:28:37.735Z,101401.12
2019-04-21T13:31:08.894Z,101393.22
2019-04-21T13:33:39.871Z,101393.89
2019-04-21T13:36:11.636Z,101387.56
2019-04-21T13:39:36.171Z,101389.89
2019-04-21T13:41:47.503Z,101380.92
2019-04-21T13:44:13.355Z,101378.83
2019-04-21T13:46:45.016Z,101374.06
2019-04-21T13:49:19.095Z,101364.92
2019-04-21T13:51:50.105Z,101363.03
2019-04-21T13:54:20.202Z,101362.80
2019-04-21T13:56:50.457Z,101356.16
2019-04-21T13:59:22.479Z,101352.09
2019-04-21T14:01:53.878Z,101360.53
2019-04-21T14:04:25.196Z,101354.81
2019-04-21T14:06:56.386Z,101351.56
2019-04-21T14:09:37.806Z,101352.16
2019-04-21T14:11:59.135Z,101353.98
2019-04-21T14:14:30.452Z,101346.80
2019-04-21T14:17:00.591Z,101344.86
2019-04-21T14:19:33.116Z,101322.93
2019-04-21T14:22:03.663Z,101346.36
2019-04-21T14:24:34.958Z,101336.33
2019-04-21T14:27:05.980Z,101327.52
2019-04-21T14:29:37.691Z,101332.45
2019-04-21T14:32:08.447Z,101324.19
2019-04-21T14:34:39.722Z,101324.08
2019-04-21T14:37:10.858Z,101325.75
2019-04-21T14:39:50.423Z,101320.99
2019-04-21T14:42:12.445Z,101318.80
2019-04-21T14:44:42.936Z,101305.00
2019-04-21T14:47:37.872Z,101307.03
2019-04-21T14:50:30.446Z,101304.49
2019-04-21T14:53:18.399Z,101287.45
2019-04-21T14:55:49.127Z,101309.62
2019-04-21T14:58:19.219Z,101301.78
2019-04-21T15:01:00.046Z,101300.14
2019-04-21T15:03:30.109Z,101298.33
2019-04-21T15:06:01.154Z,101298.53
2019-04-21T15:08:31.352Z,101290.97
2019-04-21T15:11:01.318Z,101288.58
2019-04-21T15:13:32.294Z,101287.20
2019-04-21T15:16:02.755Z,101286.03
2019-04-21T15:18:34.557Z,101284.06
2019-04-21T15:21:05.638Z,101277.73
2019-04-21T15:23:36.191Z,101272.44
2019-04-21T15:26:08.338Z,101264.37
2019-04-21T15:28:40.540Z,101273.48
2019-04-21T15:31:12.783Z,101262.40
2019-04-21T15:33:43.247Z,101257.61
2019-04-21T15:36:15.039Z,101260.92
2019-04-21T15:38:46.039Z,101255.77
2019-04-21T15:41:16.446Z,101255.66
2019-04-21T15:43:48.719Z,101252.84
2019-04-21T15:46:18.862Z,101252.75
2019-04-21T15:48:48.916Z,101245.53
2019-04-21T15:51:19.783Z,101248.32
2019-04-21T15:53:51.992Z,101242.22
2019-04-21T15:56:26.874Z,101241.02
2019-04-21T15:59:14.825Z,101239.03
2019-04-21T16:02:01.040Z,101240.16
2019-04-21T16:04:32.717Z,101234.28
2019-04-21T16:07:03.746Z,101227.06
2019-04-21T16:09:35.838Z,101231.69
2019-04-21T16:12:05.771Z,101225.58
2019-04-21T16:14:36.489Z,101223.33
2019-04-21T16:17:07.578Z,101223.91
2019-04-21T16:19:38.397Z,101214.27
2019-04-21T16:22:10.816Z,101218.91
2019-04-21T16:24:42.131Z,101220.94
2019-04-21T16:27:12.662Z,101212.30
2019-04-21T16:29:43.903Z,101213.80
2019-04-21T16:32:18.421Z,101214.52
2019-04-21T16:34:54.275Z,101210.78
2019-04-21T16:37:19.495Z,101212.48
2019-04-21T16:39:49.913Z,101213.94
2019-04-21T16:42:20.423Z,101203.36
2019-04-21T16:44:50.567Z,101200.50
2019-04-21T16:47:21.525Z,101194.70
2019-04-21T16:49:51.952Z,101198.25
2019-04-21T16:52:25.909Z,101190.23
2019-04-21T16:55:14.938Z,101194.16
2019-04-21T16:57:59.670Z,101186.41
2019-04-21T17:00:36.195Z,101184.91
2019-04-21T17:02:58.792Z,101183.94
2019-04-21T17:05:30.047Z,101181.50
2019-04-21T17:08:01.794Z,101181.50
2019-04-21T17:10:32.802Z,101184.39
2019-04-21T17:13:03.834Z,101182.22
2019-04-21T17:15:51.916Z,101179.01
2019-04-21T17:18:22.779Z,101128.16
2019-04-21T17:20:46.652Z,101174.57
2019-04-21T17:23:09.605Z,101168.29
2019-04-21T17:25:39.691Z,101176.85
2019-04-21T17:28:09.882Z,101173.22
2019-04-21T17:30:40.510Z,101172.63
2019-04-21T17:33:16.177Z,101172.91
2019-04-21T17:35:42.788Z,101167.44
2019-04-21T17:38:14.005Z,101175.70
2019-04-21T17:40:44.159Z,101168.61
2019-04-21T17:43:17.855Z,101172.05
2019-04-21T17:45:46.796Z,101171.70
2019-04-21T17:48:25.126Z,101167.98
2019-04-21T17:51:01.256Z,101169.45
2019-04-21T17:53:46.766Z,101174.77
2019-04-21T17:56:31.776Z,101173.08
2019-04-21T17:59:04.145Z,101168.47
2019-04-21T18:01:40.507Z,101170.09
2019-04-21T18:04:12.581Z,101167.81
2019-04-21T18:06:47.943Z,101171.84
2019-04-21T18:09:26.713Z,101176.44
2019-04-21T18:11:52.635Z,101170.62
2019-04-21T18:14:05.197Z,101177.25
2019-04-21T18:16:40.042Z,101179.90
2019-04-21T18:19:07.081Z,101175.90
2019-04-21T18:22:19.527Z,101178.55
2019-04-21T18:24:59.292Z,101182.23
2019-04-21T18:27:26.096Z,101180.61
2019-04-21T18:29:58.056Z,101180.45
2019-04-21T18:32:34.146Z,101177.89
2019-04-21T18:35:29.245Z,101180.28
2019-04-21T18:38:23.747Z,101182.68
2019-04-21T18:40:51.315Z,101189.30
2019-04-21T18:46:31.444Z,101180.54
2019-04-21T18:48:47.017Z,101183.91
2019-04-21T18:51:20.182Z,101180.02
2019-04-21T18:54:25.185Z,101185.20
2019-04-21T18:56:50.986Z,101190.73
2019-04-21T18:59:08.970Z,101190.18
2019-04-21T19:01:40.664Z,101189.35
2019-04-21T19:04:14.288Z,101190.77
2019-04-21T19:06:59.400Z,101192.47
2019-04-21T19:09:47.218Z,101196.36
2019-04-21T19:12:08.732Z,101201.52
2019-04-21T19:14:42.441Z,101199.16
2019-04-21T19:17:38.388Z,101201.76
2019-04-21T19:20:02.620Z,101205.87
2019-04-21T19:22:13.527Z,101205.56
2019-04-21T19:24:49.966Z,101195.38
2019-04-21T19:27:47.324Z,101202.73
2019-04-21T19:30:01.680Z,101200.39
2019-04-21T19:34:40.649Z,101190.42
2019-04-21T19:37:13.351Z,101191.34
2019-04-21T19:39:53.849Z,101192.77
2019-04-21T19:42:28.436Z,101182.11
2019-04-21T19:44:59.251Z,101187.24
2019-04-21T19:47:42.314Z,101186.39
2019-04-21T19:50:05.923Z,101181.57
2019-04-21T19:52:36.109Z,101178.58
2019-04-21T19:54:54.467Z,101184.45
2019-04-21T19:57:25.045Z,101185.24
2019-04-21T19:59:59.126Z,101186.02
2019-04-21T20:02:26.943Z,101186.95
2019-04-21T20:05:02.073Z,101188.34
2019-04-21T20:07:44.452Z,101182.91
2019-04-21T20:10:22.727Z,101181.91
2019-04-21T20:12:53.362Z,101174.65
2019-04-21T20:15:30.344Z,101184.84
2019-04-21T20:17:53.003Z,101177.25
2019-04-21T20:20:11.254Z,101175.22
2019-04-21T20:22:45.002Z,101173.43
2019-04-21T20:25:17.214Z,101173.95
2019-04-21T20:27:55.428Z,101174.09
2019-04-21T20:30:40.769Z,101169.65
2019-04-21T20:33:17.862Z,101169.91
2019-04-21T20:35:46.854Z,101169.16
2019-04-21T20:38:08.973Z,101164.22
2019-04-21T20:40:35.936Z,101163.83
2019-04-21T20:43:22.451Z,101168.80
2019-04-21T20:45:49.277Z,101160.83
2019-04-21T20:48:13.900Z,101158.28
2019-04-21T20:50:49.216Z,101158.28
2019-04-21T20:53:22.158Z,101158.02
2019-04-21T20:55:52.849Z,101154.34
2019-04-21T20:58:23.895Z,101148.14
2019-04-21T21:01:22.195Z,101154.48
2019-04-21T21:03:30.351Z,101151.83
2019-04-21T21:05:53.229Z,101148.13
2019-04-21T21:08:35.761Z,101155.00
2019-04-21T21:11:02.289Z,101141.08
2019-04-21T21:13:53.717Z,101145.65
2019-04-21T21:16:13.563Z,101145.26
2019-04-21T21:18:56.502Z,101146.90
2019-04-21T21:21:11.407Z,101142.48
2019-04-21T21:23:44.002Z,101140.31
2019-04-21T21:26:19.990Z,101145.64
2019-04-21T21:28:42.967Z,101139.92
2019-04-21T21:31:25.126Z,101141.58
2019-04-21T21:33:59.233Z,101145.36
2019-04-21T21:36:19.306Z,101143.33
2019-04-21T21:38:55.649Z,101145.34
2019-04-21T21:41:17.904Z,101145.61
2019-04-21T21:43:41.894Z,101142.06
2019-04-21T21:46:28.587Z,101141.30
2019-04-21T21:48:56.245Z,101139.75
2019-04-21T21:51:29.274Z,101140.24
2019-04-21T21:53:48.449Z,101138.98
2019-04-21T21:56:18.643Z,101134.94
2019-04-21T21:58:50.134Z,101134.28
2019-04-21T22:01:28.958Z,101137.06
2019-04-21T22:03:59.192Z,101136.05
2019-04-21T22:06:36.286Z,101132.86
2019-04-21T22:08:56.613Z,101134.91
2019-04-21T22:11:26.603Z,101135.15
2019-04-21T22:14:02.733Z,101133.48
2019-04-21T22:16:39.010Z,101134.63
2019-04-21T22:19:16.995Z,101140.71
2019-04-21T22:21:53.571Z,101139.56
2019-04-21T22:24:09.447Z,101140.18
2019-04-21T22:26:36.962Z,101133.97
2019-04-21T22:29:07.809Z,101129.02
2019-04-21T22:31:40.752Z,101128.73
2019-04-21T22:34:14.104Z,101128.86
2019-04-21T22:36:48.653Z,101130.25
2019-04-21T22:39:31.651Z,101132.37
2019-04-21T22:41:47.560Z,101132.73
2019-04-21T22:44:18.852Z,101131.58
2019-04-21T22:46:59.484Z,101127.38
2019-04-21T22:49:23.602Z,101129.89
2019-04-21T22:51:53.897Z,101131.73
2019-04-21T22:54:29.688Z,101134.63
2019-04-21T22:57:04.532Z,101133.84
2019-04-21T22:59:30.123Z,101137.91
2019-04-21T23:02:01.489Z,101134.19
2019-04-21T23:04:38.751Z,101129.25
2019-04-21T23:07:11.206Z,101131.77
2019-04-21T23:09:37.181Z,101125.91
2019-04-21T23:12:08.057Z,101122.97
2019-04-21T23:14:47.568Z,101126.61
2019-04-21T23:17:42.267Z,101125.30
2019-04-21T23:20:07.013Z,101127.44
2019-04-21T23:22:32.357Z,101131.97
2019-04-21T23:25:09.430Z,101135.14
2019-04-21T23:27:33.376Z,101125.48
2019-04-21T23:30:13.647Z,101126.08
2019-04-21T23:32:35.319Z,101128.30
2019-04-21T23:34:55.419Z,101124.13
2019-04-21T23:37:26.109Z,101129.36
2019-04-21T23:40:01.123Z,101129.46
2019-04-21T23:42:33.389Z,101122.51
2019-04-21T23:45:02.926Z,101122.58
2019-04-21T23:47:43.825Z,101119.78
2019-04-21T23:50:17.105Z,101117.59
2019-04-21T23:52:35.303Z,101114.41
2019-04-21T23:55:07.451Z,101106.45
2019-04-21T23:57:41.708Z,101103.80
